createdAt,value
2023-02-13T00:00:28.398Z,0
2023-02-13T00:01:29.033Z,0
2023-02-13T00:02:29.614Z,0
2023-02-13T00:04:00.800Z,0
2023-02-13T00:05:01.269Z,0
2023-02-13T00:06:02.019Z,0
2023-02-13T00:07:03.395Z,0
2023-02-13T00:08:04.098Z,0
2023-02-13T00:09:06.410Z,0
2023-02-13T00:10:05.454Z,0
2023-02-13T00:11:06.086Z,0
2023-02-13T00:12:06.627Z,0
2023-02-13T00:13:07.349Z,0
2023-02-13T00:14:07.990Z,0
2023-02-13T00:15:08.605Z,0
2023-02-13T00:16:10.005Z,0
2023-02-13T00:17:10.599Z,0
2023-02-13T00:18:11.207Z,0
2023-02-13T00:19:11.938Z,0
2023-02-13T00:20:12.484Z,0
2023-02-13T00:21:13.071Z,0
2023-02-13T00:22:13.687Z,0
2023-02-13T00:23:15.019Z,0
2023-02-13T00:24:15.566Z,0
2023-02-13T00:25:16.197Z,0
2023-02-13T00:26:16.791Z,0
2023-02-13T00:27:18.255Z,0
2023-02-13T00:28:18.902Z,0
2023-02-13T00:29:19.523Z,0
2023-02-13T00:30:20.339Z,0
2023-02-13T00:31:21.041Z,0
2023-02-13T00:32:21.860Z,0
2023-02-13T00:33:22.704Z,0
2023-02-13T00:34:23.511Z,0
2023-02-13T00:35:24.990Z,0
2023-02-13T00:36:25.858Z,0
2023-02-13T00:37:26.365Z,0
2023-02-13T00:38:27.338Z,0
2023-02-13T00:39:27.756Z,0
2023-02-13T00:40:28.310Z,0
2023-02-13T00:41:28.959Z,0
2023-02-13T00:43:00.495Z,0
2023-02-13T00:44:01.232Z,0
2023-02-13T00:45:02.046Z,0
2023-02-13T00:46:02.758Z,0
2023-02-13T00:47:04.512Z,0
2023-02-13T00:48:05.231Z,0
2023-02-13T00:49:05.829Z,0
2023-02-13T00:50:06.423Z,0
2023-02-13T00:51:06.968Z,0
2023-02-13T00:52:07.867Z,0
2023-02-13T00:53:08.907Z,0
2023-02-13T00:54:09.564Z,0
2023-02-13T00:55:10.540Z,0
2023-02-13T00:56:11.172Z,0
2023-02-13T00:57:12.990Z,0
2023-02-13T00:58:13.532Z,0
2023-02-13T00:59:14.313Z,0
2023-02-13T01:00:14.894Z,0
2023-02-13T01:01:15.694Z,0
2023-02-13T01:02:16.327Z,0
2023-02-13T01:03:16.995Z,0
2023-02-13T01:04:17.548Z,0
2023-02-13T01:05:18.451Z,0
2023-02-13T01:06:19.067Z,0
2023-02-13T01:07:20.293Z,0
2023-02-13T01:08:20.896Z,0
2023-02-13T01:09:21.619Z,0
2023-02-13T01:10:22.758Z,0
2023-02-13T01:11:23.427Z,0
2023-02-13T01:12:24.048Z,0
2023-02-13T01:13:24.674Z,0
2023-02-13T01:14:25.351Z,0
2023-02-13T01:15:26.019Z,0
2023-02-13T01:16:26.673Z,0
2023-02-13T01:17:27.676Z,0
2023-02-13T01:18:28.202Z,0
2023-02-13T01:19:29.201Z,0
2023-02-13T01:21:00.419Z,0
2023-02-13T01:22:00.902Z,0
2023-02-13T01:23:01.530Z,0
2023-02-13T01:24:02.983Z,0
2023-02-13T01:25:03.685Z,0
2023-02-13T01:26:04.374Z,0
2023-02-13T01:27:05.950Z,0
2023-02-13T01:28:06.662Z,0
2023-02-13T01:29:07.272Z,0
2023-02-13T01:30:08.701Z,0
2023-02-13T01:31:09.362Z,0
2023-02-13T01:32:10.611Z,0
2023-02-13T01:33:11.258Z,0
2023-02-13T01:34:11.805Z,0
2023-02-13T01:35:12.420Z,0
2023-02-13T01:36:12.978Z,0
2023-02-13T01:37:14.259Z,0
2023-02-13T01:38:14.890Z,0
2023-02-13T01:39:15.486Z,0
2023-02-13T01:40:16.313Z,0
2023-02-13T01:41:16.866Z,0
2023-02-13T01:42:17.488Z,0
2023-02-13T01:43:18.162Z,0
2023-02-13T01:44:18.906Z,0
2023-02-13T01:45:19.555Z,0
2023-02-13T01:46:20.437Z,0
2023-02-13T01:47:21.677Z,0
2023-02-13T01:48:22.366Z,0
2023-02-13T01:49:22.977Z,0
2023-02-13T01:50:23.593Z,0
2023-02-13T01:51:24.236Z,0
2023-02-13T01:52:24.903Z,0
2023-02-13T01:53:26.481Z,0
2023-02-13T01:54:27.318Z,0
2023-02-13T01:55:28.011Z,0
2023-02-13T01:56:59.952Z,0
2023-02-13T01:58:00.642Z,0
2023-02-13T01:59:01.253Z,0
2023-02-13T02:00:02.472Z,0
2023-02-13T02:01:03.091Z,0
2023-02-13T02:02:03.827Z,0
2023-02-13T02:03:04.376Z,0
2023-02-13T02:04:05.116Z,0
2023-02-13T02:05:05.803Z,0
2023-02-13T02:06:06.404Z,0
2023-02-13T02:07:07.941Z,0
2023-02-13T02:08:08.548Z,0
2023-02-13T02:09:09.173Z,0
2023-02-13T02:10:09.903Z,0
2023-02-13T02:11:10.659Z,0
2023-02-13T02:12:11.299Z,0
2023-02-13T02:13:12.032Z,0
2023-02-13T02:14:12.622Z,0
2023-02-13T02:15:13.181Z,0
2023-02-13T02:16:13.977Z,0
2023-02-13T02:17:15.451Z,0
2023-02-13T02:18:16.062Z,0
2023-02-13T02:19:16.737Z,0
2023-02-13T02:20:17.382Z,0
2023-02-13T02:21:18.045Z,0
2023-02-13T02:22:18.688Z,0
2023-02-13T02:23:19.430Z,0
2023-02-13T02:24:20.788Z,0
2023-02-13T02:25:21.401Z,0
2023-02-13T02:26:22.124Z,0
2023-02-13T02:27:23.462Z,0
2023-02-13T02:28:24.114Z,0
2023-02-13T02:29:25.492Z,0
2023-02-13T02:30:26.200Z,0
2023-02-13T02:31:26.809Z,0
2023-02-13T02:32:27.445Z,0
2023-02-13T02:33:28.518Z,0
2023-02-13T02:34:59.579Z,0
2023-02-13T02:36:00.219Z,0
2023-02-13T02:37:00.933Z,0
2023-02-13T02:38:02.321Z,0
2023-02-13T02:39:02.932Z,0
2023-02-13T02:40:03.605Z,0
2023-02-13T02:41:04.157Z,0
2023-02-13T02:42:04.798Z,0
2023-02-13T02:43:05.457Z,0
2023-02-13T02:44:06.052Z,0
2023-02-13T02:45:06.678Z,0
2023-02-13T02:46:07.277Z,0
2023-02-13T02:47:07.913Z,0
2023-02-13T02:48:09.269Z,0
2023-02-13T02:49:09.931Z,0
2023-02-13T02:50:10.589Z,0
2023-02-13T02:51:11.206Z,0
2023-02-13T02:52:11.788Z,0
2023-02-13T02:53:12.456Z,0
2023-02-13T02:54:13.809Z,0
2023-02-13T02:55:14.484Z,0
2023-02-13T02:56:15.322Z,0
2023-02-13T02:57:15.845Z,0
2023-02-13T02:58:17.182Z,0
2023-02-13T02:59:17.931Z,0
2023-02-13T03:00:18.663Z,0
2023-02-13T03:01:19.405Z,0
2023-02-13T03:02:19.997Z,0
2023-02-13T03:03:20.663Z,0
2023-02-13T03:04:21.526Z,0
2023-02-13T03:05:22.128Z,0
2023-02-13T03:06:23.736Z,0
2023-02-13T03:07:24.935Z,0
2023-02-13T03:08:25.617Z,0
2023-02-13T03:09:26.205Z,0
2023-02-13T03:10:26.946Z,0
2023-02-13T03:11:28.144Z,0
2023-02-13T03:12:59.092Z,0
2023-02-13T03:13:59.695Z,0
2023-02-13T03:15:00.410Z,0
2023-02-13T03:16:01.179Z,0
2023-02-13T03:17:01.733Z,0
2023-02-13T03:18:03.277Z,0
2023-02-13T03:19:03.928Z,0
2023-02-13T03:20:04.561Z,0
2023-02-13T03:21:05.264Z,0
2023-02-13T03:22:05.980Z,0
2023-02-13T03:23:06.702Z,0
2023-02-13T03:24:07.868Z,0
2023-02-13T03:25:08.571Z,0
2023-02-13T03:26:09.221Z,0
2023-02-13T03:27:09.823Z,0
2023-02-13T03:28:11.372Z,0
2023-02-13T03:29:11.961Z,0
2023-02-13T03:30:12.558Z,0
2023-02-13T03:31:13.946Z,0
2023-02-13T03:32:14.583Z,0
2023-02-13T03:33:15.287Z,0
2023-02-13T03:34:15.964Z,0
2023-02-13T03:35:16.587Z,0
2023-02-13T03:36:17.199Z,0
2023-02-13T03:37:17.862Z,0
2023-02-13T03:38:19.265Z,0
2023-02-13T03:39:19.939Z,0
2023-02-13T03:40:20.478Z,0
2023-02-13T03:41:21.135Z,0
2023-02-13T03:42:21.753Z,0
2023-02-13T03:43:22.387Z,0
2023-02-13T03:44:23.093Z,0
2023-02-13T03:45:23.682Z,0
2023-02-13T03:46:24.350Z,0
2023-02-13T03:47:24.954Z,0
2023-02-13T03:48:26.158Z,0
2023-02-13T03:49:26.746Z,0
2023-02-13T03:50:58.437Z,0
2023-02-13T03:51:58.697Z,0
2023-02-13T03:52:59.252Z,0
2023-02-13T03:53:59.881Z,0
2023-02-13T03:55:01.226Z,0
2023-02-13T03:56:01.732Z,0
2023-02-13T03:57:02.344Z,0
2023-02-13T03:58:03.901Z,0
2023-02-13T03:59:04.528Z,0
2023-02-13T04:00:05.061Z,0
2023-02-13T04:01:05.677Z,0
2023-02-13T04:02:06.355Z,0
2023-02-13T04:03:06.898Z,0
2023-02-13T04:04:07.559Z,0
2023-02-13T04:05:08.132Z,0
2023-02-13T04:06:08.770Z,0
2023-02-13T04:07:09.414Z,0
2023-02-13T04:08:10.869Z,0
2023-02-13T04:09:11.453Z,0
2023-02-13T04:10:12.037Z,0
2023-02-13T04:11:12.591Z,0
2023-02-13T04:12:13.240Z,0
2023-02-13T04:13:13.912Z,0
2023-02-13T04:14:14.477Z,0
2023-02-13T04:15:15.144Z,0
2023-02-13T04:16:15.812Z,0
2023-02-13T04:17:16.425Z,0
2023-02-13T04:18:17.899Z,0
2023-02-13T04:19:18.558Z,0
2023-02-13T04:20:19.202Z,0
2023-02-13T04:21:19.855Z,0
2023-02-13T04:22:20.515Z,0
2023-02-13T04:23:21.130Z,0
2023-02-13T04:24:22.465Z,0
2023-02-13T04:25:23.080Z,0
2023-02-13T04:26:23.686Z,0
2023-02-13T04:27:24.314Z,0
2023-02-13T04:28:25.968Z,0
2023-02-13T04:29:26.529Z,0
2023-02-13T04:30:57.830Z,0
2023-02-13T04:31:58.286Z,0
2023-02-13T04:32:58.927Z,0
2023-02-13T04:33:59.515Z,0
2023-02-13T04:35:00.123Z,0
2023-02-13T04:36:01.701Z,0
2023-02-13T04:37:02.351Z,0
2023-02-13T04:38:02.958Z,0
2023-02-13T04:39:04.239Z,0
2023-02-13T04:40:04.981Z,0
2023-02-13T04:41:05.601Z,0
2023-02-13T04:42:06.484Z,0
2023-02-13T04:43:06.821Z,0
2023-02-13T04:44:07.441Z,0
2023-02-13T04:45:08.096Z,0
2023-02-13T04:46:08.866Z,0
2023-02-13T04:47:09.412Z,0
2023-02-13T04:48:10.914Z,0
2023-02-13T04:49:11.472Z,0
2023-02-13T04:50:12.098Z,0
2023-02-13T04:51:13.425Z,0
2023-02-13T04:52:14.083Z,0
2023-02-13T04:53:14.712Z,0
2023-02-13T04:54:15.312Z,0
2023-02-13T04:55:16.788Z,0
2023-02-13T04:56:19.625Z,0
2023-02-13T04:57:18.003Z,0
2023-02-13T04:58:19.415Z,0
2023-02-13T04:59:20.003Z,0
2023-02-13T05:00:20.669Z,0
2023-02-13T05:01:21.305Z,0
2023-02-13T05:02:21.924Z,0
2023-02-13T05:03:22.587Z,0
2023-02-13T05:04:23.272Z,0
2023-02-13T05:05:23.869Z,0
2023-02-13T05:06:24.491Z,0
2023-02-13T05:07:25.064Z,0
2023-02-13T05:08:26.460Z,0
2023-02-13T05:09:57.407Z,0
2023-02-13T05:10:58.269Z,0
2023-02-13T05:11:58.615Z,0
2023-02-13T05:12:59.217Z,0
2023-02-13T05:13:59.772Z,0
2023-02-13T05:15:00.499Z,0
2023-02-13T05:16:01.289Z,0
2023-02-13T05:17:01.999Z,0
2023-02-13T05:18:02.697Z,0
2023-02-13T05:19:04.322Z,0
2023-02-13T05:20:04.924Z,0
2023-02-13T05:21:05.574Z,0
2023-02-13T05:22:06.204Z,0
2023-02-13T05:23:06.883Z,0
2023-02-13T05:24:08.303Z,0
2023-02-13T05:25:08.873Z,0
2023-02-13T05:26:10.603Z,0
2023-02-13T05:27:11.300Z,0
2023-02-13T05:28:11.984Z,0
2023-02-13T05:29:13.308Z,0
2023-02-13T05:30:13.928Z,0
2023-02-13T05:31:14.853Z,0
2023-02-13T05:32:15.413Z,0
2023-02-13T05:33:16.311Z,0
2023-02-13T05:34:16.904Z,0
2023-02-13T05:35:17.451Z,0
2023-02-13T05:36:18.312Z,0
2023-02-13T05:37:18.810Z,0
2023-02-13T05:38:19.409Z,0
2023-02-13T05:39:20.626Z,0
2023-02-13T05:40:22.887Z,0
2023-02-13T05:41:21.686Z,0
2023-02-13T05:42:22.118Z,0
2023-02-13T05:43:22.720Z,0
2023-02-13T05:44:23.271Z,0
2023-02-13T05:45:23.690Z,0
2023-02-13T05:46:24.354Z,0
2023-02-13T05:47:25.121Z,0
2023-02-13T05:48:26.088Z,0
2023-02-13T05:49:57.579Z,0
2023-02-13T05:50:58.372Z,0
2023-02-13T05:51:58.589Z,0
2023-02-13T05:52:59.079Z,0
2023-02-13T05:53:59.502Z,0
2023-02-13T05:55:00.884Z,0
2023-02-13T05:56:01.273Z,0
2023-02-13T05:57:02.065Z,0
2023-02-13T05:58:02.984Z,0
2023-02-13T05:59:03.851Z,0
2023-02-13T06:00:04.632Z,0
2023-02-13T06:01:05.183Z,0
2023-02-13T06:02:05.628Z,0
2023-02-13T06:03:06.345Z,0
2023-02-13T06:04:06.837Z,0
2023-02-13T06:05:07.440Z,0
2023-02-13T06:06:07.919Z,0
2023-02-13T06:07:08.375Z,0
2023-02-13T06:08:08.917Z,0
2023-02-13T06:09:09.326Z,0
2023-02-13T06:10:09.775Z,0
2023-02-13T06:11:10.625Z,0
2023-02-13T06:12:11.149Z,0
2023-02-13T06:13:11.692Z,0
2023-02-13T06:14:12.178Z,0
2023-02-13T06:15:12.647Z,0
2023-02-13T06:16:13.269Z,0
2023-02-13T06:17:13.751Z,0
2023-02-13T06:18:14.200Z,0
2023-02-13T06:19:15.967Z,0
2023-02-13T06:20:16.819Z,0
2023-02-13T06:21:17.243Z,0
2023-02-13T06:22:17.666Z,0
2023-02-13T06:23:18.393Z,0
2023-02-13T06:24:18.840Z,0
2023-02-13T06:25:19.902Z,0
2023-02-13T06:26:20.306Z,0
2023-02-13T06:27:20.743Z,0
2023-02-13T06:28:21.557Z,0
2023-02-13T06:29:22.956Z,0
2023-02-13T06:30:23.579Z,0
2023-02-13T06:31:24.036Z,0
2023-02-13T06:32:24.438Z,0
2023-02-13T06:33:24.986Z,0
2023-02-13T06:34:56.042Z,0
2023-02-13T06:35:56.875Z,0
2023-02-13T06:36:57.312Z,0
2023-02-13T06:37:57.730Z,0
2023-02-13T06:38:59.340Z,0
2023-02-13T06:39:59.805Z,0
2023-02-13T06:41:00.566Z,0
2023-02-13T06:42:01.016Z,0
2023-02-13T06:43:01.468Z,0
2023-02-13T06:44:02.234Z,0
2023-02-13T06:45:02.805Z,0
2023-02-13T06:46:03.245Z,0
2023-02-13T06:47:03.935Z,0
2023-02-13T06:48:04.302Z,0
2023-02-13T06:49:05.329Z,0
2023-02-13T06:50:06.079Z,0
2023-02-13T06:51:06.691Z,0
2023-02-13T06:52:07.065Z,0
2023-02-13T06:53:07.809Z,0
2023-02-13T06:54:08.251Z,0
2023-02-13T06:55:09.346Z,0
2023-02-13T06:56:10.028Z,0
2023-02-13T06:57:10.553Z,0
2023-02-13T06:58:11.158Z,0
2023-02-13T06:59:12.833Z,0
2023-02-13T07:00:13.269Z,0
2023-02-13T07:01:14.014Z,0
2023-02-13T07:02:14.516Z,0
2023-02-13T07:03:15.006Z,0
2023-02-13T07:04:15.829Z,0
2023-02-13T07:05:16.326Z,0
2023-02-13T07:06:16.781Z,0
2023-02-13T07:07:17.267Z,0
2023-02-13T07:08:17.764Z,0
2023-02-13T07:09:19.443Z,0
2023-02-13T07:10:20.200Z,0
2023-02-13T07:11:20.688Z,0
2023-02-13T07:12:22.148Z,0
2023-02-13T07:13:23.085Z,0
2023-02-13T07:14:23.639Z,0
2023-02-13T07:15:24.159Z,0
2023-02-13T07:16:25.453Z,0
2023-02-13T07:17:56.035Z,0
2023-02-13T07:18:56.829Z,0
2023-02-13T07:19:58.092Z,0
2023-02-13T07:20:59.034Z,0
2023-02-13T07:21:59.510Z,0
2023-02-13T07:22:59.923Z,0
2023-02-13T07:24:00.462Z,0
2023-02-13T07:25:01.279Z,0
2023-02-13T07:26:01.751Z,0
2023-02-13T07:27:02.386Z,0
2023-02-13T07:28:03.056Z,0
2023-02-13T07:29:11.140Z,0
2023-02-13T07:30:05.653Z,0
2023-02-13T07:31:06.507Z,0
2023-02-13T07:32:07.097Z,0
2023-02-13T07:33:07.468Z,0
2023-02-13T07:34:08.198Z,0
2023-02-13T07:35:08.642Z,5.625
2023-02-13T07:36:09.207Z,5.625
2023-02-13T07:37:10.029Z,5.625
2023-02-13T07:38:10.587Z,5.625
2023-02-13T07:39:11.697Z,5.625
2023-02-13T07:40:12.558Z,5.625
2023-02-13T07:41:14.468Z,5.625
2023-02-13T07:42:15.162Z,5.625
2023-02-13T07:43:15.590Z,5.625
2023-02-13T07:44:16.301Z,5.625
2023-02-13T07:45:16.827Z,5.625
2023-02-13T07:46:17.475Z,5.625
2023-02-13T07:47:20.082Z,5.625
2023-02-13T07:48:18.433Z,5.625
2023-02-13T07:49:19.140Z,5.625
2023-02-13T07:50:20.558Z,5.625
2023-02-13T07:51:21.151Z,5.625
2023-02-13T07:52:22.067Z,5.625
2023-02-13T07:53:22.589Z,5.625
2023-02-13T07:54:23.150Z,5.625
2023-02-13T07:55:24.372Z,5.625
2023-02-13T07:56:55.492Z,5.625
2023-02-13T07:57:56.050Z,5.625
2023-02-13T07:58:56.485Z,5.625
2023-02-13T07:59:57.855Z,5.625
2023-02-13T08:00:58.320Z,5.625
2023-02-13T08:01:58.960Z,5.625
2023-02-13T08:02:59.387Z,5.625
2023-02-13T08:03:59.934Z,5.625
2023-02-13T08:05:00.743Z,5.625
2023-02-13T08:06:01.221Z,5.625
2023-02-13T08:07:01.668Z,5.625
2023-02-13T08:08:02.542Z,5.625
2023-02-13T08:09:03.168Z,11.25
2023-02-13T08:10:04.775Z,11.25
2023-02-13T08:11:06.301Z,11.25
2023-02-13T08:12:06.956Z,11.25
2023-02-13T08:13:07.687Z,5.625
2023-02-13T08:14:08.549Z,5.625
2023-02-13T08:15:09.192Z,5.625
2023-02-13T08:16:09.919Z,5.625
2023-02-13T08:17:10.645Z,11.25
2023-02-13T08:18:11.625Z,11.25
2023-02-13T08:19:12.497Z,11.25
2023-02-13T08:20:13.711Z,11.25
2023-02-13T08:21:14.391Z,11.25
2023-02-13T08:24:16.508Z,11.25
2023-02-13T08:25:17.208Z,11.25
2023-02-13T08:26:18.880Z,11.25
2023-02-13T08:27:19.509Z,11.25
2023-02-13T08:28:20.319Z,11.25
2023-02-13T08:29:20.893Z,11.25
2023-02-13T08:30:22.354Z,11.25
2023-02-13T08:31:23.125Z,11.25
2023-02-13T08:32:23.881Z,11.25
2023-02-13T08:33:55.077Z,11.25
2023-02-13T08:34:55.854Z,11.25
2023-02-13T08:35:56.972Z,11.25
2023-02-13T08:36:57.241Z,11.25
2023-02-13T08:37:57.932Z,11.25
2023-02-13T08:38:58.679Z,11.25
2023-02-13T08:40:00.487Z,11.25
2023-02-13T08:41:01.181Z,11.25
2023-02-13T08:42:01.968Z,11.25
2023-02-13T08:43:02.592Z,16.875
2023-02-13T08:44:04.889Z,16.875
2023-02-13T08:45:03.967Z,16.875
2023-02-13T08:46:04.743Z,16.875
2023-02-13T08:47:05.315Z,16.875
2023-02-13T08:48:06.009Z,16.875
2023-02-13T08:49:06.672Z,16.875
2023-02-13T08:50:07.951Z,16.875
2023-02-13T08:51:08.725Z,22.5
2023-02-13T08:52:09.478Z,22.5
2023-02-13T08:53:10.074Z,22.5
2023-02-13T08:54:10.961Z,22.5
2023-02-13T08:55:11.534Z,16.875
2023-02-13T08:56:12.970Z,22.5
2023-02-13T08:57:13.667Z,22.5
2023-02-13T08:58:14.403Z,16.875
2023-02-13T08:59:15.037Z,16.875
2023-02-13T09:00:16.353Z,16.875
2023-02-13T09:01:17.038Z,16.875
2023-02-13T09:02:17.540Z,16.875
2023-02-13T09:03:18.356Z,16.875
2023-02-13T09:04:18.872Z,16.875
2023-02-13T09:05:19.406Z,16.875
2023-02-13T09:06:20.102Z,16.875
2023-02-13T09:07:20.784Z,16.875
2023-02-13T09:08:21.392Z,16.875
2023-02-13T09:09:22.041Z,16.875
2023-02-13T09:10:23.377Z,16.875
2023-02-13T09:11:54.550Z,16.875
2023-02-13T09:12:55.190Z,16.875
2023-02-13T09:13:55.880Z,16.875
2023-02-13T09:14:56.447Z,16.875
2023-02-13T09:15:57.974Z,16.875
2023-02-13T09:16:58.396Z,16.875
2023-02-13T09:17:58.990Z,22.5
2023-02-13T09:18:59.635Z,22.5
2023-02-13T09:20:01.226Z,22.5
2023-02-13T09:21:02.669Z,16.875
2023-02-13T09:22:03.319Z,22.5
2023-02-13T09:23:04.905Z,16.875
2023-02-13T09:24:05.481Z,22.5
2023-02-13T09:25:06.861Z,22.5
2023-02-13T09:26:07.523Z,16.875
2023-02-13T09:27:08.164Z,16.875
2023-02-13T09:28:08.793Z,16.875
2023-02-13T09:29:09.375Z,16.875
2023-02-13T09:30:10.892Z,22.5
2023-02-13T09:31:11.564Z,22.5
2023-02-13T09:32:12.922Z,22.5
2023-02-13T09:33:13.517Z,16.875
2023-02-13T09:34:14.148Z,22.5
2023-02-13T09:35:15.406Z,22.5
2023-02-13T09:36:15.963Z,16.875
2023-02-13T09:37:16.565Z,22.5
2023-02-13T09:38:17.184Z,22.5
2023-02-13T09:39:17.811Z,16.875
2023-02-13T09:40:19.403Z,16.875
2023-02-13T09:41:19.978Z,16.875
2023-02-13T09:42:20.600Z,16.875
2023-02-13T09:43:21.293Z,16.875
2023-02-13T09:44:22.005Z,22.5
2023-02-13T09:45:22.659Z,22.5
2023-02-13T09:46:23.831Z,22.5
2023-02-13T09:47:55.570Z,22.5
2023-02-13T09:48:56.230Z,22.5
2023-02-13T09:49:56.872Z,16.875
2023-02-13T09:50:58.240Z,16.875
2023-02-13T09:51:58.800Z,22.5
2023-02-13T09:52:59.431Z,16.875
2023-02-13T09:54:00.166Z,16.875
2023-02-13T09:55:00.977Z,16.875
2023-02-13T09:56:02.204Z,16.875
2023-02-13T09:57:02.920Z,16.875
2023-02-13T09:58:03.623Z,16.875
2023-02-13T09:59:04.272Z,16.875
2023-02-13T10:00:04.899Z,16.875
2023-02-13T10:01:06.270Z,16.875
2023-02-13T10:02:06.946Z,16.875
2023-02-13T10:03:07.555Z,16.875
2023-02-13T10:04:08.256Z,22.5
2023-02-13T10:05:09.466Z,22.5
2023-02-13T10:06:10.097Z,16.875
2023-02-13T10:07:10.895Z,22.5
2023-02-13T10:08:11.474Z,22.5
2023-02-13T10:09:12.129Z,22.5
2023-02-13T10:10:12.930Z,22.5
2023-02-13T10:11:14.200Z,22.5
2023-02-13T10:12:14.855Z,28.125
2023-02-13T10:13:15.424Z,22.5
2023-02-13T10:14:16.076Z,22.5
2023-02-13T10:15:16.792Z,22.5
2023-02-13T10:16:17.517Z,22.5
2023-02-13T10:17:18.007Z,22.5
2023-02-13T10:18:18.596Z,22.5
2023-02-13T10:19:19.190Z,22.5
2023-02-13T10:20:20.002Z,28.125
2023-02-13T10:21:21.224Z,28.125
2023-02-13T10:22:21.822Z,28.125
2023-02-13T10:23:22.478Z,28.125
2023-02-13T10:24:53.602Z,22.5
2023-02-13T10:25:54.262Z,22.5
2023-02-13T10:26:55.706Z,22.5
2023-02-13T10:27:56.321Z,22.5
2023-02-13T10:28:56.949Z,22.5
2023-02-13T10:29:57.576Z,28.125
2023-02-13T10:30:59.084Z,28.125
2023-02-13T10:31:59.709Z,22.5
2023-02-13T10:33:00.320Z,22.5
2023-02-13T10:34:00.936Z,22.5
2023-02-13T10:35:01.551Z,22.5
2023-02-13T10:36:02.792Z,22.5
2023-02-13T10:37:03.397Z,22.5
2023-02-13T10:38:03.989Z,22.5
2023-02-13T10:39:04.659Z,22.5
2023-02-13T10:40:05.216Z,22.5
2023-02-13T10:41:06.371Z,22.5
2023-02-13T10:42:07.167Z,22.5
2023-02-13T10:43:07.782Z,22.5
2023-02-13T10:44:08.421Z,22.5
2023-02-13T10:45:09.010Z,22.5
2023-02-13T10:46:09.619Z,22.5
2023-02-13T10:47:10.583Z,22.5
2023-02-13T10:48:11.259Z,22.5
2023-02-13T10:49:11.952Z,22.5
2023-02-13T10:50:12.524Z,22.5
2023-02-13T10:51:13.910Z,22.5
2023-02-13T10:52:14.544Z,22.5
2023-02-13T10:53:15.194Z,22.5
2023-02-13T10:54:15.779Z,22.5
2023-02-13T10:55:16.428Z,22.5
2023-02-13T10:56:17.107Z,22.5
2023-02-13T10:57:18.818Z,22.5
2023-02-13T10:58:19.416Z,22.5
2023-02-13T10:59:20.070Z,22.5
2023-02-13T11:00:20.793Z,22.5
2023-02-13T11:01:21.932Z,22.5
2023-02-13T11:02:53.396Z,22.5
2023-02-13T11:03:54.028Z,22.5
2023-02-13T11:04:54.728Z,22.5
2023-02-13T11:05:55.548Z,22.5
2023-02-13T11:06:56.092Z,22.5
2023-02-13T11:07:56.784Z,22.5
2023-02-13T11:08:57.325Z,22.5
2023-02-13T11:09:58.042Z,22.5
2023-02-13T11:10:58.691Z,22.5
2023-02-13T11:12:00.140Z,22.5
2023-02-13T11:13:00.771Z,22.5
2023-02-13T11:14:01.364Z,22.5
2023-02-13T11:15:02.081Z,22.5
2023-02-13T11:16:03.933Z,22.5
2023-02-13T11:17:04.306Z,22.5
2023-02-13T11:18:04.917Z,22.5
2023-02-13T11:19:05.533Z,22.5
2023-02-13T11:20:06.179Z,22.5
2023-02-13T11:21:07.355Z,22.5
2023-02-13T11:22:07.949Z,22.5
2023-02-13T11:23:08.566Z,22.5
2023-02-13T11:24:09.183Z,22.5
2023-02-13T11:25:09.906Z,22.5
2023-02-13T11:26:11.154Z,22.5
2023-02-13T11:27:11.792Z,22.5
2023-02-13T11:28:12.495Z,22.5
2023-02-13T11:29:13.014Z,22.5
2023-02-13T11:30:14.449Z,22.5
2023-02-13T11:31:15.999Z,22.5
2023-02-13T11:32:16.653Z,22.5
2023-02-13T11:33:17.071Z,22.5
2023-02-13T11:34:17.648Z,22.5
2023-02-13T11:35:18.234Z,22.5
2023-02-13T11:36:18.778Z,22.5
2023-02-13T11:37:19.415Z,22.5
2023-02-13T11:38:20.147Z,22.5
2023-02-13T11:39:20.749Z,22.5
2023-02-13T11:40:21.373Z,22.5
2023-02-13T11:41:53.733Z,22.5
2023-02-13T11:42:54.472Z,22.5
2023-02-13T11:43:55.103Z,22.5
2023-02-13T11:44:56.346Z,22.5
2023-02-13T11:45:57.405Z,22.5
2023-02-13T11:46:57.634Z,22.5
2023-02-13T11:47:58.146Z,22.5
2023-02-13T11:48:58.669Z,22.5
2023-02-13T11:49:59.246Z,22.5
2023-02-13T11:50:59.844Z,22.5
2023-02-13T11:52:01.277Z,22.5
2023-02-13T11:53:02.057Z,22.5
2023-02-13T11:54:02.662Z,22.5
2023-02-13T11:55:05.175Z,22.5
2023-02-13T11:56:03.786Z,22.5
2023-02-13T11:57:05.650Z,22.5
2023-02-13T11:58:04.907Z,22.5
2023-02-13T11:59:07.084Z,22.5
2023-02-13T12:00:06.648Z,22.5
2023-02-13T12:01:07.181Z,22.5
2023-02-13T12:02:08.659Z,22.5
2023-02-13T12:03:09.346Z,22.5
2023-02-13T12:04:09.786Z,22.5
2023-02-13T12:05:10.545Z,22.5
2023-02-13T12:06:11.143Z,22.5
2023-02-13T12:07:11.801Z,22.5
2023-02-13T12:08:12.340Z,22.5
2023-02-13T12:09:12.905Z,22.5
2023-02-13T12:10:13.461Z,22.5
2023-02-13T12:11:13.971Z,22.5
2023-02-13T12:12:15.159Z,22.5
2023-02-13T12:13:15.803Z,22.5
2023-02-13T12:14:16.478Z,22.5
2023-02-13T12:15:17.902Z,22.5
2023-02-13T12:16:18.555Z,22.5
2023-02-13T12:17:30.347Z,22.5
2023-02-13T12:18:19.724Z,22.5
2023-02-13T12:19:20.466Z,22.5
2023-02-13T12:20:21.082Z,28.125
2023-02-13T12:21:52.825Z,28.125
2023-02-13T12:22:53.467Z,28.125
2023-02-13T12:23:54.169Z,28.125
2023-02-13T12:24:54.789Z,28.125
2023-02-13T12:25:56.684Z,28.125
2023-02-13T12:26:57.001Z,28.125
2023-02-13T12:27:57.646Z,28.125
2023-02-13T12:28:58.285Z,28.125
2023-02-13T12:29:59.853Z,28.125
2023-02-13T12:31:00.841Z,28.125
2023-02-13T12:32:01.872Z,28.125
2023-02-13T12:33:02.393Z,28.125
2023-02-13T12:34:02.972Z,28.125
2023-02-13T12:35:03.620Z,33.75
2023-02-13T12:36:04.207Z,33.75
2023-02-13T12:37:04.751Z,33.75
2023-02-13T12:38:05.325Z,33.75
2023-02-13T12:39:05.927Z,33.75
2023-02-13T12:40:08.159Z,33.75
2023-02-13T12:41:07.137Z,33.75
2023-02-13T12:42:08.384Z,33.75
2023-02-13T12:43:09.042Z,33.75
2023-02-13T12:44:09.603Z,33.75
2023-02-13T12:45:10.534Z,33.75
2023-02-13T12:46:11.220Z,39.375
2023-02-13T12:47:11.761Z,39.375
2023-02-13T12:48:12.372Z,39.375
2023-02-13T12:49:12.935Z,39.375
2023-02-13T12:50:13.602Z,39.375
2023-02-13T12:51:14.112Z,39.375
2023-02-13T12:52:15.653Z,39.375
2023-02-13T12:53:16.298Z,39.375
2023-02-13T12:54:16.951Z,45
2023-02-13T12:55:18.357Z,45
2023-02-13T12:56:18.913Z,45
2023-02-13T12:57:20.342Z,45
2023-02-13T12:58:21.325Z,45
2023-02-13T12:59:52.148Z,50.625
2023-02-13T13:00:52.912Z,50.625
2023-02-13T13:01:54.359Z,50.625
2023-02-13T13:02:54.977Z,50.625
2023-02-13T13:03:55.594Z,50.625
2023-02-13T13:04:56.215Z,50.625
2023-02-13T13:06:09.067Z,56.25
2023-02-13T13:06:57.838Z,56.25
2023-02-13T13:07:58.076Z,56.25
2023-02-13T13:08:59.342Z,56.25
2023-02-13T13:09:59.847Z,56.25
2023-02-13T13:11:00.717Z,56.25
2023-02-13T13:12:01.103Z,61.875
2023-02-13T13:13:02.591Z,61.875
2023-02-13T13:14:03.176Z,61.875
2023-02-13T13:15:03.852Z,61.875
2023-02-13T13:16:04.394Z,61.875
2023-02-13T13:17:04.987Z,67.5
2023-02-13T13:18:05.544Z,67.5
2023-02-13T13:19:06.928Z,67.5
2023-02-13T13:20:07.522Z,67.5
2023-02-13T13:21:08.830Z,67.5
2023-02-13T13:22:09.485Z,67.5
2023-02-13T13:23:10.065Z,73.125
2023-02-13T13:24:10.969Z,73.125
2023-02-13T13:25:11.686Z,73.125
2023-02-13T13:26:12.194Z,73.125
2023-02-13T13:27:12.815Z,73.125
2023-02-13T13:28:13.364Z,78.75
2023-02-13T13:29:14.595Z,78.75
2023-02-13T13:30:15.110Z,78.75
2023-02-13T13:31:15.762Z,78.75
2023-02-13T13:32:16.862Z,78.75
2023-02-13T13:33:17.463Z,78.75
2023-02-13T13:34:18.073Z,84.375
2023-02-13T13:35:18.659Z,84.375
2023-02-13T13:36:19.293Z,84.375
2023-02-13T13:37:19.888Z,84.375
2023-02-13T13:38:20.914Z,101.25
2023-02-13T13:39:51.716Z,118.125
2023-02-13T13:40:52.288Z,151.875
2023-02-13T13:41:52.815Z,258.75
2023-02-13T13:42:54.159Z,472.5
2023-02-13T13:43:54.712Z,596.25
2023-02-13T13:44:55.433Z,630
2023-02-13T13:45:56.198Z,669.375
2023-02-13T13:46:56.688Z,714.375
2023-02-13T13:47:57.213Z,753.75
2023-02-13T13:48:57.704Z,787.5
2023-02-13T13:49:58.228Z,781.875
2023-02-13T13:50:59.164Z,759.375
2023-02-13T13:51:59.235Z,759.375
2023-02-13T13:53:00.651Z,748.125
2023-02-13T13:54:01.178Z,736.875
2023-02-13T13:55:01.714Z,720
2023-02-13T13:56:02.188Z,691.875
2023-02-13T13:57:02.694Z,573.75
2023-02-13T13:58:03.248Z,405
2023-02-13T13:59:04.621Z,348.75
2023-02-13T14:00:05.165Z,331.875
2023-02-13T14:01:05.727Z,320.625
2023-02-13T14:02:06.453Z,320.625
2023-02-13T14:03:07.644Z,309.375
2023-02-13T14:04:08.150Z,298.125
2023-02-13T14:05:08.643Z,292.5
2023-02-13T14:06:09.116Z,275.625
2023-02-13T14:07:09.579Z,264.375
2023-02-13T14:08:10.093Z,247.5
2023-02-13T14:09:10.869Z,241.875
2023-02-13T14:10:11.428Z,230.625
2023-02-13T14:11:12.001Z,225
2023-02-13T14:12:12.480Z,219.375
2023-02-13T14:13:13.613Z,213.75
2023-02-13T14:14:14.116Z,208.125